createdAt,value
2022-09-18T00:01:43.448Z,13.30
2022-09-18T00:04:15.204Z,13.30
2022-09-18T00:06:46.546Z,13.20
2022-09-18T00:09:17.096Z,13.20
2022-09-18T00:11:48.428Z,13.10
2022-09-18T00:14:19.779Z,13.10
2022-09-18T00:16:48.707Z,13.00
2022-09-18T00:19:18.202Z,13.00
2022-09-18T00:21:50.150Z,12.90
2022-09-18T00:24:20.441Z,12.90
2022-09-18T00:26:50.213Z,12.80
2022-09-18T00:29:19.766Z,12.70
2022-09-18T00:31:48.444Z,12.70
2022-09-18T00:34:17.371Z,12.60
2022-09-18T00:36:47.608Z,12.60
2022-09-18T00:39:16.315Z,12.60
2022-09-18T00:41:45.949Z,12.50
2022-09-18T00:44:42.669Z,12.50
2022-09-18T00:47:28.478Z,12.40
2022-09-18T00:50:04.100Z,12.30
2022-09-18T00:52:47.110Z,12.30
2022-09-18T00:55:16.752Z,12.30
2022-09-18T00:57:49.641Z,12.30
2022-09-18T01:00:18.607Z,12.30
2022-09-18T01:02:48.827Z,12.30
2022-09-18T01:05:22.821Z,12.30
2022-09-18T01:08:12.285Z,12.30
2022-09-18T01:11:01.006Z,12.30
2022-09-18T01:13:40.688Z,12.30
2022-09-18T01:16:16.498Z,12.30
2022-09-18T01:18:53.432Z,12.20
2022-09-18T01:21:30.202Z,12.30
2022-09-18T01:24:41.274Z,12.30
2022-09-18T01:27:13.758Z,12.30
2022-09-18T01:29:51.996Z,12.30
2022-09-18T01:32:25.706Z,12.20
2022-09-18T01:35:09.600Z,12.20
2022-09-18T01:37:48.227Z,12.20
2022-09-18T01:40:21.405Z,12.20
2022-09-18T01:42:52.809Z,12.20
2022-09-18T01:45:28.204Z,12.20
2022-09-18T01:47:59.975Z,12.10
2022-09-18T01:50:31.693Z,12.20
2022-09-18T01:53:04.677Z,12.10
2022-09-18T01:55:35.807Z,12.10
2022-09-18T01:58:08.495Z,12.10
2022-09-18T02:00:42.138Z,12.10
2022-09-18T02:03:15.364Z,12.00
2022-09-18T02:05:48.277Z,12.10
2022-09-18T02:08:23.846Z,12.00
2022-09-18T02:10:56.371Z,12.00
2022-09-18T02:13:29.283Z,12.00
2022-09-18T02:16:04.866Z,12.00
2022-09-18T02:18:38.622Z,12.00
2022-09-18T02:21:11.776Z,12.00
2022-09-18T02:23:42.419Z,11.90
2022-09-18T02:26:14.269Z,11.90
2022-09-18T02:28:45.076Z,11.90
2022-09-18T02:31:16.803Z,11.90
2022-09-18T02:33:45.757Z,11.90
2022-09-18T02:36:40.134Z,11.90
2022-09-18T02:39:27.010Z,11.80
2022-09-18T02:42:05.138Z,11.80
2022-09-18T02:44:43.779Z,11.70
2022-09-18T02:47:26.869Z,11.70
2022-09-18T02:50:03.825Z,11.70
2022-09-18T02:52:38.125Z,11.70
2022-09-18T02:55:11.693Z,11.70
2022-09-18T02:57:45.457Z,11.70
2022-09-18T03:00:18.654Z,11.70
2022-09-18T03:02:51.100Z,11.70
2022-09-18T03:05:20.589Z,11.70
2022-09-18T03:07:49.047Z,11.70
2022-09-18T03:10:17.685Z,11.70
2022-09-18T03:12:46.539Z,11.80
2022-09-18T03:15:15.206Z,11.80
2022-09-18T03:17:43.712Z,11.80
2022-09-18T03:20:13.860Z,11.80
2022-09-18T03:22:42.422Z,11.80
2022-09-18T03:25:13.539Z,11.80
2022-09-18T03:27:43.165Z,11.80
2022-09-18T03:30:12.892Z,11.80
2022-09-18T03:32:41.419Z,11.80
2022-09-18T03:35:11.017Z,11.80
2022-09-18T03:37:40.985Z,11.80
2022-09-18T03:40:10.855Z,11.80
2022-09-18T03:42:39.760Z,11.80
2022-09-18T03:45:09.793Z,11.80
2022-09-18T03:47:38.369Z,11.80
2022-09-18T03:50:08.386Z,11.70
2022-09-18T03:52:37.014Z,11.70
2022-09-18T03:55:07.725Z,11.70
2022-09-18T03:57:36.606Z,11.70
2022-09-18T04:00:06.256Z,11.70
2022-09-18T04:02:35.107Z,11.70
2022-09-18T04:05:04.251Z,11.70
2022-09-18T04:07:33.036Z,11.80
2022-09-18T04:10:01.595Z,11.80
2022-09-18T04:12:31.952Z,11.80
2022-09-18T04:15:00.989Z,11.80
2022-09-18T04:17:29.663Z,11.70
2022-09-18T04:19:58.488Z,11.80
2022-09-18T04:22:27.321Z,11.80
2022-09-18T04:24:55.897Z,11.70
2022-09-18T04:27:24.700Z,11.70
2022-09-18T04:29:54.741Z,11.70
2022-09-18T04:32:23.361Z,11.70
2022-09-18T04:34:52.203Z,11.70
2022-09-18T04:37:20.812Z,11.70
2022-09-18T04:39:49.372Z,11.70
2022-09-18T04:42:18.266Z,11.70
2022-09-18T04:44:47.428Z,11.70
2022-09-18T04:47:17.453Z,11.70
2022-09-18T04:49:46.376Z,11.70
2022-09-18T04:52:14.969Z,11.70
2022-09-18T04:54:43.480Z,11.70
2022-09-18T04:57:12.264Z,11.80
2022-09-18T04:59:41.124Z,11.80
2022-09-18T05:02:10.006Z,11.80
2022-09-18T05:04:40.270Z,11.80
2022-09-18T05:07:09.024Z,11.80
2022-09-18T05:09:37.669Z,11.90
2022-09-18T05:12:07.027Z,11.90
2022-09-18T05:14:35.860Z,11.90
2022-09-18T05:17:04.423Z,12.00
2022-09-18T05:19:33.231Z,12.00
2022-09-18T05:22:03.290Z,12.10
2022-09-18T05:24:32.149Z,12.10
2022-09-18T05:27:01.089Z,12.20
2022-09-18T05:29:29.713Z,12.20
2022-09-18T05:31:58.334Z,12.20
2022-09-18T05:34:27.287Z,12.20
2022-09-18T05:36:55.888Z,12.20
2022-09-18T05:39:26.875Z,12.30
2022-09-18T05:41:55.888Z,12.30
2022-09-18T05:44:24.529Z,12.30
2022-09-18T05:46:53.234Z,12.40
2022-09-18T05:49:22.385Z,12.40
2022-09-18T05:51:50.889Z,12.50
2022-09-18T05:54:19.699Z,12.50
2022-09-18T05:56:50.030Z,12.60
2022-09-18T05:59:18.597Z,12.70
2022-09-18T06:01:47.596Z,12.70
2022-09-18T06:04:16.413Z,12.80
2022-09-18T06:06:44.944Z,12.80
2022-09-18T06:09:13.757Z,12.90
2022-09-18T06:11:42.791Z,13.00
2022-09-18T06:14:12.835Z,13.00
2022-09-18T06:16:42.439Z,13.00
2022-09-18T06:19:11.427Z,13.10
2022-09-18T06:21:40.110Z,13.10
2022-09-18T06:24:09.079Z,13.20
2022-09-18T06:26:37.996Z,13.20
2022-09-18T06:29:06.842Z,13.30
2022-09-18T06:31:36.937Z,13.40
2022-09-18T06:34:05.866Z,13.40
2022-09-18T06:36:34.580Z,13.50
2022-09-18T06:39:03.514Z,13.50
2022-09-18T06:41:32.379Z,13.60
2022-09-18T06:44:01.202Z,13.60
2022-09-18T06:46:29.808Z,13.60
2022-09-18T06:49:00.226Z,13.70
2022-09-18T06:51:28.702Z,13.70
2022-09-18T06:53:57.598Z,13.80
2022-09-18T06:56:26.364Z,13.80
2022-09-18T06:58:55.192Z,13.80
2022-09-18T07:01:23.774Z,13.80
2022-09-18T07:03:52.810Z,13.80
2022-09-18T07:06:22.811Z,13.90
2022-09-18T07:08:51.682Z,13.90
2022-09-18T07:11:20.852Z,13.90
2022-09-18T07:13:50.111Z,14.00
2022-09-18T07:16:18.704Z,14.00
2022-09-18T07:18:49.462Z,14.10
2022-09-18T07:21:18.107Z,14.20
2022-09-18T07:23:48.068Z,14.20
2022-09-18T07:26:16.996Z,14.20
2022-09-18T07:28:45.596Z,14.20
2022-09-18T07:31:14.700Z,14.30
2022-09-18T07:33:43.519Z,14.30
2022-09-18T07:36:12.174Z,14.40
2022-09-18T07:38:43.241Z,14.50
2022-09-18T07:41:13.519Z,14.50
2022-09-18T07:43:42.091Z,14.50
2022-09-18T07:46:10.669Z,14.50
2022-09-18T07:48:39.844Z,14.50
2022-09-18T07:51:08.693Z,14.50
2022-09-18T07:53:37.713Z,14.50
2022-09-18T07:56:09.771Z,14.50
2022-09-18T07:58:40.225Z,14.60
2022-09-18T08:01:09.022Z,14.60
2022-09-18T08:03:41.462Z,14.60
2022-09-18T08:06:10.581Z,14.70
2022-09-18T08:08:39.201Z,14.70
2022-09-18T08:11:07.942Z,14.80
2022-09-18T08:13:36.849Z,14.80
2022-09-18T08:16:07.161Z,14.90
2022-09-18T08:18:36.403Z,14.90
2022-09-18T08:21:09.893Z,14.90
2022-09-18T08:23:39.366Z,15.00
2022-09-18T08:26:08.914Z,15.10
2022-09-18T08:28:37.557Z,15.20
2022-09-18T08:31:07.701Z,15.30
2022-09-18T08:33:36.658Z,15.30
2022-09-18T08:36:05.327Z,15.40
2022-09-18T08:38:34.393Z,15.50
2022-09-18T08:41:15.619Z,15.60
2022-09-18T08:43:57.567Z,15.60
2022-09-18T08:46:34.189Z,15.60
2022-09-18T08:49:11.430Z,15.60
2022-09-18T08:51:47.023Z,15.60
2022-09-18T08:54:23.331Z,15.60
2022-09-18T08:56:53.506Z,15.60
2022-09-18T08:59:30.080Z,15.60
2022-09-18T09:02:17.320Z,15.60
2022-09-18T09:04:46.398Z,15.60
2022-09-18T09:07:33.258Z,15.70
2022-09-18T09:10:19.015Z,15.70
2022-09-18T09:12:55.682Z,15.70
2022-09-18T09:15:36.276Z,15.60
2022-09-18T09:18:18.364Z,15.60
2022-09-18T09:20:52.712Z,15.50
2022-09-18T09:23:31.896Z,15.50
2022-09-18T09:26:07.746Z,15.50
2022-09-18T09:28:45.379Z,15.50
2022-09-18T09:31:16.665Z,15.50
2022-09-18T09:33:54.492Z,15.50
2022-09-18T09:36:27.327Z,15.50
2022-09-18T09:39:01.862Z,15.60
2022-09-18T09:41:35.537Z,15.60
2022-09-18T09:44:23.059Z,15.60
2022-09-18T09:47:06.051Z,15.70
2022-09-18T09:49:43.494Z,15.60
2022-09-18T09:52:21.668Z,15.70
2022-09-18T09:54:54.993Z,15.80
2022-09-18T09:57:29.792Z,15.80
2022-09-18T10:00:08.739Z,15.90
2022-09-18T10:02:54.949Z,15.90
2022-09-18T10:05:30.269Z,15.90
2022-09-18T10:08:07.141Z,15.90
2022-09-18T10:10:41.378Z,15.90
2022-09-18T10:13:16.421Z,15.80
2022-09-18T10:15:47.198Z,15.80
2022-09-18T10:18:19.310Z,15.70
2022-09-18T10:20:51.848Z,15.70
2022-09-18T10:23:33.803Z,15.70
2022-09-18T10:26:03.244Z,15.70
2022-09-18T10:28:32.151Z,15.70
2022-09-18T10:31:02.781Z,15.60
2022-09-18T10:33:37.095Z,15.70
2022-09-18T10:36:27.401Z,15.80
2022-09-18T10:38:56.319Z,15.90
2022-09-18T10:41:38.118Z,16.10
2022-09-18T10:44:21.499Z,16.20
2022-09-18T10:46:59.450Z,16.40
2022-09-18T10:49:32.185Z,16.50
2022-09-18T10:52:25.206Z,16.60
2022-09-18T10:55:12.732Z,16.70
2022-09-18T10:57:45.471Z,16.70
2022-09-18T11:00:38.292Z,16.80
2022-09-18T11:03:21.771Z,16.90
2022-09-18T11:05:53.846Z,17.00
2022-09-18T11:08:27.100Z,17.20
2022-09-18T11:11:02.816Z,17.30
2022-09-18T11:13:31.898Z,17.40
2022-09-18T11:16:04.086Z,17.60
2022-09-18T11:18:34.854Z,17.70
2022-09-18T11:21:06.643Z,18.00
2022-09-18T11:23:38.120Z,18.20
2022-09-18T11:26:19.493Z,18.40
2022-09-18T11:29:03.715Z,18.60
2022-09-18T11:31:43.884Z,18.80
2022-09-18T11:34:22.410Z,19.00
2022-09-18T11:36:54.511Z,19.10
2022-09-18T11:39:28.573Z,19.20
2022-09-18T11:41:57.653Z,19.40
2022-09-18T11:44:29.011Z,19.40
2022-09-18T11:47:33.491Z,19.50
2022-09-18T11:50:16.234Z,19.60
2022-09-18T11:52:46.760Z,19.50
2022-09-18T11:55:27.129Z,19.50
2022-09-18T11:58:00.199Z,19.50
2022-09-18T12:00:33.351Z,19.30
2022-09-18T12:03:12.604Z,19.10
2022-09-18T12:05:52.385Z,19.10
2022-09-18T12:08:28.265Z,19.10
2022-09-18T12:11:11.463Z,19.20
2022-09-18T12:13:59.554Z,19.30
2022-09-18T12:16:42.019Z,19.30
2022-09-18T12:19:16.932Z,19.20
2022-09-18T12:21:51.611Z,19.00
2022-09-18T12:24:20.412Z,18.80
2022-09-18T12:27:01.822Z,18.50
2022-09-18T12:29:51.625Z,18.30
2022-09-18T12:32:33.326Z,18.00
2022-09-18T12:35:14.424Z,17.70
2022-09-18T12:37:54.100Z,17.50
2022-09-18T12:40:47.959Z,17.20
2022-09-18T12:43:37.403Z,16.90
2022-09-18T12:46:37.071Z,16.60
2022-09-18T12:49:47.336Z,16.40
2022-09-18T12:52:27.845Z,16.10
2022-09-18T12:55:25.500Z,15.90
2022-09-18T12:58:05.632Z,15.70
2022-09-18T13:00:38.415Z,15.50
2022-09-18T13:03:14.514Z,15.30
2022-09-18T13:05:47.335Z,15.10
2022-09-18T13:08:21.449Z,14.90
2022-09-18T13:10:55.179Z,14.80
2022-09-18T13:13:39.011Z,14.70
2022-09-18T13:16:13.954Z,14.70
2022-09-18T13:18:49.553Z,14.70
2022-09-18T13:21:21.151Z,14.70
2022-09-18T13:23:52.585Z,14.70
2022-09-18T13:26:23.986Z,14.70
2022-09-18T13:28:53.149Z,14.70
2022-09-18T13:31:28.894Z,14.80
2022-09-18T13:34:00.180Z,14.80
2022-09-18T13:36:31.910Z,14.80
2022-09-18T13:39:03.147Z,14.80
2022-09-18T13:41:44.294Z,14.80
2022-09-18T13:44:20.607Z,14.70
2022-09-18T13:46:52.643Z,14.70
2022-09-18T13:49:28.403Z,14.70
2022-09-18T13:51:57.700Z,14.60
2022-09-18T13:54:29.466Z,14.50
2022-09-18T13:57:22.223Z,14.50
2022-09-18T13:59:54.341Z,14.50
2022-09-18T14:02:31.134Z,14.40
2022-09-18T14:05:29.763Z,14.40
2022-09-18T14:08:05.239Z,14.30
2022-09-18T14:10:38.392Z,14.30
2022-09-18T14:13:31.670Z,14.30
2022-09-18T14:16:06.004Z,14.20
2022-09-18T14:18:41.306Z,14.20
2022-09-18T14:21:24.126Z,14.20
2022-09-18T14:24:36.585Z,14.10
2022-09-18T14:27:36.406Z,14.00
2022-09-18T14:30:23.137Z,14.00
2022-09-18T14:33:20.121Z,14.00
2022-09-18T14:35:54.526Z,14.00
2022-09-18T14:38:33.333Z,13.90
2022-09-18T14:41:10.323Z,13.90
2022-09-18T14:43:41.078Z,13.90
2022-09-18T14:46:19.894Z,13.90
2022-09-18T14:48:48.945Z,13.90
2022-09-18T14:51:22.557Z,13.90
2022-09-18T14:53:53.134Z,13.90
2022-09-18T14:56:28.521Z,13.90
2022-09-18T14:59:01.725Z,13.90
2022-09-18T15:01:33.013Z,14.00
2022-09-18T15:04:04.389Z,14.00
2022-09-18T15:06:41.595Z,14.00
2022-09-18T15:09:13.056Z,14.10
2022-09-18T15:12:01.240Z,14.10
2022-09-18T15:14:40.505Z,14.10
2022-09-18T15:17:19.307Z,14.20
2022-09-18T15:19:59.654Z,14.20
2022-09-18T15:22:30.628Z,14.20
2022-09-18T15:25:01.933Z,14.20
2022-09-18T15:27:31.661Z,14.20
2022-09-18T15:30:04.093Z,14.20
2022-09-18T15:32:38.540Z,14.20
2022-09-18T15:35:14.112Z,14.30
2022-09-18T15:37:54.074Z,14.30
2022-09-18T15:40:28.660Z,14.20
2022-09-18T15:43:00.047Z,14.20
2022-09-18T15:45:30.638Z,14.30
2022-09-18T15:48:01.268Z,14.20
2022-09-18T15:50:39.686Z,14.20
2022-09-18T15:53:26.365Z,14.10
2022-09-18T15:56:04.090Z,14.10
2022-09-18T15:58:43.879Z,14.10
2022-09-18T16:01:23.262Z,14.10
2022-09-18T16:04:08.409Z,14.10
2022-09-18T16:06:50.866Z,14.10
2022-09-18T16:09:38.966Z,14.10
2022-09-18T16:12:39.962Z,14.10
2022-09-18T16:15:23.259Z,14.10
2022-09-18T16:18:06.121Z,14.10
2022-09-18T16:20:38.306Z,14.00
2022-09-18T16:23:19.774Z,14.00
2022-09-18T16:26:08.101Z,14.00
2022-09-18T16:28:38.511Z,14.00
2022-09-18T16:31:07.791Z,13.90
2022-09-18T16:33:36.751Z,13.90
2022-09-18T16:36:09.109Z,13.90
2022-09-18T16:38:37.933Z,13.90
2022-09-18T16:41:10.314Z,13.90
2022-09-18T16:43:39.076Z,13.80
2022-09-18T16:46:08.067Z,13.80
2022-09-18T16:48:38.872Z,13.80
2022-09-18T16:51:08.193Z,13.80
2022-09-18T16:53:38.559Z,13.80
2022-09-18T16:56:14.414Z,13.70
2022-09-18T16:58:43.466Z,13.70
2022-09-18T17:01:12.620Z,13.60
2022-09-18T17:03:41.250Z,13.60
2022-09-18T17:06:10.229Z,13.50
2022-09-18T17:08:39.121Z,13.50
2022-09-18T17:11:09.121Z,13.40
2022-09-18T17:13:37.753Z,13.40
2022-09-18T17:16:06.989Z,13.40
2022-09-18T17:18:36.312Z,13.40
2022-09-18T17:21:06.026Z,13.40
2022-09-18T17:23:34.988Z,13.30
2022-09-18T17:26:10.077Z,13.30
2022-09-18T17:28:39.981Z,13.30
2022-09-18T17:31:10.974Z,13.30
2022-09-18T17:33:40.796Z,13.30
2022-09-18T17:36:10.869Z,13.30
2022-09-18T17:38:40.984Z,13.20
2022-09-18T17:41:12.499Z,13.10
2022-09-18T17:43:41.735Z,13.10
2022-09-18T17:46:11.714Z,13.00
2022-09-18T17:48:41.418Z,13.00
2022-09-18T17:51:13.069Z,13.00
2022-09-18T17:53:43.216Z,13.00
2022-09-18T17:56:14.777Z,12.90
2022-09-18T17:58:44.505Z,12.90
2022-09-18T18:01:16.350Z,12.90
2022-09-18T18:03:47.208Z,12.90
2022-09-18T18:06:21.011Z,12.90
2022-09-18T18:08:52.123Z,12.90
2022-09-18T18:11:25.268Z,12.90
2022-09-18T18:13:56.308Z,12.90
2022-09-18T18:16:27.740Z,12.90
2022-09-18T18:18:58.746Z,12.80
2022-09-18T18:21:31.829Z,12.80
2022-09-18T18:24:02.191Z,12.80
2022-09-18T18:26:32.520Z,12.80
2022-09-18T18:29:02.290Z,12.80
2022-09-18T18:31:31.655Z,12.80
2022-09-18T18:34:00.706Z,12.80
2022-09-18T18:36:31.617Z,12.70
2022-09-18T18:39:01.600Z,12.80
2022-09-18T18:41:33.534Z,12.70
2022-09-18T18:44:05.917Z,12.70
2022-09-18T18:46:36.856Z,12.60
2022-09-18T18:49:09.124Z,12.60
2022-09-18T18:51:44.684Z,12.50
2022-09-18T18:54:14.104Z,12.50
2022-09-18T18:56:46.366Z,12.50
2022-09-18T18:59:17.024Z,12.40
2022-09-18T19:01:47.380Z,12.40
2022-09-18T19:04:19.363Z,12.40
2022-09-18T19:06:50.058Z,12.30
2022-09-18T19:09:21.213Z,12.30
2022-09-18T19:11:53.114Z,12.30
2022-09-18T19:14:23.412Z,12.20
2022-09-18T19:16:53.207Z,12.20
2022-09-18T19:19:23.843Z,12.10
2022-09-18T19:21:53.558Z,12.10
2022-09-18T19:24:23.075Z,12.10
2022-09-18T19:26:53.680Z,12.00
2022-09-18T19:29:22.794Z,12.00
2022-09-18T19:31:52.633Z,12.00
2022-09-18T19:34:24.066Z,12.00
2022-09-18T19:36:53.605Z,11.90
2022-09-18T19:39:24.762Z,11.90
2022-09-18T19:41:59.513Z,11.80
2022-09-18T19:44:33.259Z,11.80
2022-09-18T19:47:04.770Z,11.80
2022-09-18T19:49:35.407Z,11.70
2022-09-18T19:52:05.214Z,11.70
2022-09-18T19:54:33.752Z,11.80
2022-09-18T19:57:04.256Z,11.80
2022-09-18T19:59:33.160Z,11.80
2022-09-18T20:02:02.180Z,11.80
2022-09-18T20:04:30.945Z,11.90
2022-09-18T20:06:59.674Z,11.90
2022-09-18T20:09:30.762Z,11.90
2022-09-18T20:11:59.370Z,11.90
2022-09-18T20:14:30.130Z,11.90
2022-09-18T20:16:58.682Z,11.90
2022-09-18T20:19:27.524Z,11.90
2022-09-18T20:21:56.425Z,11.90
2022-09-18T20:24:25.015Z,11.80
2022-09-18T20:26:53.494Z,11.80
2022-09-18T20:29:22.298Z,11.80
2022-09-18T20:31:52.297Z,11.80
2022-09-18T20:34:24.852Z,11.70
2022-09-18T20:36:55.039Z,11.70
2022-09-18T20:39:23.892Z,11.70
2022-09-18T20:41:52.688Z,11.60
2022-09-18T20:44:22.102Z,11.60
2022-09-18T20:46:56.799Z,11.50
2022-09-18T20:49:26.235Z,11.50
2022-09-18T20:51:54.884Z,11.50
2022-09-18T20:54:24.040Z,11.40
2022-09-18T20:56:52.929Z,11.40
2022-09-18T20:59:21.469Z,11.30
2022-09-18T21:01:52.004Z,11.30
2022-09-18T21:04:22.190Z,11.20
2022-09-18T21:06:56.475Z,11.30
2022-09-18T21:09:28.316Z,11.20
2022-09-18T21:11:57.459Z,11.20
2022-09-18T21:14:27.433Z,11.20
2022-09-18T21:16:57.503Z,11.10
2022-09-18T21:19:26.316Z,11.10
2022-09-18T21:21:55.204Z,11.10
2022-09-18T21:24:24.726Z,11.10
2022-09-18T21:26:53.369Z,11.10
2022-09-18T21:29:23.567Z,11.10
2022-09-18T21:31:54.152Z,11.00
2022-09-18T21:34:27.133Z,11.10
2022-09-18T21:36:58.960Z,11.00
2022-09-18T21:39:29.712Z,11.00
2022-09-18T21:41:59.675Z,11.00
2022-09-18T21:44:30.055Z,11.00
2022-09-18T21:47:00.884Z,11.10
2022-09-18T21:49:31.963Z,11.00
2022-09-18T21:52:02.981Z,11.00
2022-09-18T21:54:32.187Z,11.00
2022-09-18T21:57:00.961Z,11.00
2022-09-18T21:59:32.283Z,11.00
2022-09-18T22:02:03.230Z,11.00
2022-09-18T22:04:33.953Z,11.00
2022-09-18T22:07:03.254Z,11.00
2022-09-18T22:09:34.462Z,10.90
2022-09-18T22:12:03.773Z,11.00
2022-09-18T22:14:34.500Z,11.00
2022-09-18T22:17:05.590Z,11.00
2022-09-18T22:19:39.380Z,10.90
2022-09-18T22:22:10.445Z,11.00
2022-09-18T22:24:39.481Z,10.90
2022-09-18T22:27:08.839Z,10.90
2022-09-18T22:29:38.776Z,10.90
2022-09-18T22:32:08.926Z,10.90
2022-09-18T22:34:38.641Z,10.90
2022-09-18T22:37:07.820Z,10.90
2022-09-18T22:39:36.418Z,10.90
2022-09-18T22:42:05.195Z,10.90
2022-09-18T22:44:33.534Z,10.90
2022-09-18T22:47:03.337Z,10.80
2022-09-18T22:49:31.971Z,10.80
2022-09-18T22:52:02.363Z,10.80
2022-09-18T22:54:31.301Z,10.70
2022-09-18T22:56:59.850Z,10.70
2022-09-18T22:59:28.776Z,10.70
2022-09-18T23:01:59.624Z,10.70
2022-09-18T23:04:30.184Z,10.60
2022-09-18T23:07:00.222Z,10.60
2022-09-18T23:09:30.631Z,10.60
2022-09-18T23:12:00.087Z,10.50
2022-09-18T23:14:31.621Z,10.50
2022-09-18T23:17:01.476Z,10.50
2022-09-18T23:19:34.930Z,10.50
2022-09-18T23:22:03.640Z,10.40
2022-09-18T23:24:34.098Z,10.40
2022-09-18T23:27:02.761Z,10.40
2022-09-18T23:29:32.308Z,10.30
2022-09-18T23:32:01.147Z,10.30
2022-09-18T23:34:33.793Z,10.30
2022-09-18T23:37:02.992Z,10.30
2022-09-18T23:39:34.845Z,10.30
2022-09-18T23:42:05.877Z,10.30
2022-09-18T23:44:34.598Z,10.20
2022-09-18T23:47:03.752Z,10.30
2022-09-18T23:49:33.531Z,10.20
2022-09-18T23:52:02.707Z,10.20
2022-09-18T23:54:33.551Z,10.20
2022-09-18T23:57:02.416Z,10.20
2022-09-18T23:59:31.328Z,10.20
